Time;durP1;ratioP1;P1;durP2;ratioP2;P2;SDS_P1;SDS_P2;PMS_P1;PMS_P2;Temp;Humidity;BMP_temperature;BMP_pressure;BME280_temperature;BME280_humidity;BME280_pressure;Samples;Min_cycle;Max_cycle;Signal;HPM_P1;HPM_P2
2023/06/12 00:00:21;;;;;;;5.23;4.43;;;;;;;;;;4936919;29;20199;-72
2023/06/12 00:03:26;;;;;;;5.60;4.27;;;;;;;;;;4937073;29;20223;-72
2023/06/12 00:06:31;;;;;;;5.20;4.70;;;;;;;;;;4936841;29;20193;-72
2023/06/12 00:09:35;;;;;;;5.97;4.67;;;;;;;;;;4936857;29;20640;-72
2023/06/12 00:12:39;;;;;;;5.07;4.40;;;;;;;;;;4936154;29;20220;-72
2023/06/12 00:15:44;;;;;;;6.13;4.43;;;;;;;;;;4936951;29;20188;-72
2023/06/12 00:18:51;;;;;;;6.60;4.70;;;;;;;;;;4936999;29;20627;-72
2023/06/12 00:21:55;;;;;;;5.33;4.83;;;;;;;;;;4937209;29;20588;-72
2023/06/12 00:25:00;;;;;;;5.67;4.73;;;;;;;;;;4936220;29;20188;-72
2023/06/12 00:28:04;;;;;;;7.60;5.10;;;;;;;;;;4936564;29;20204;-72
2023/06/12 00:31:08;;;;;;;5.47;4.73;;;;;;;;;;4936623;29;20211;-72
2023/06/12 00:34:12;;;;;;;7.53;5.20;;;;;;;;;;4935566;29;20517;-72
2023/06/12 00:37:17;;;;;;;6.27;5.30;;;;;;;;;;4936030;29;20647;-72
2023/06/12 00:40:22;;;;;;;5.50;4.90;;;;;;;;;;4935938;29;20180;-73
2023/06/12 00:43:26;;;;;;;5.57;5.07;;;;;;;;;;4936544;29;20216;-74
2023/06/12 00:46:30;;;;;;;5.50;5.00;;;;;;;;;;4935256;29;20188;-73
2023/06/12 00:49:35;;;;;;;5.47;4.97;;;;;;;;;;4924639;29;20180;-73
2023/06/12 00:52:45;;;;;;;5.80;5.20;;;;;;;;;;4935047;29;20215;-74
2023/06/12 00:55:50;;;;;;;5.47;4.93;;;;;;;;;;4946647;29;20184;-74
2023/06/12 00:58:55;;;;;;;6.50;5.20;;;;;;;;;;4935203;29;20525;-74
2023/06/12 01:02:01;;;;;;;7.10;5.03;;;;;;;;;;4935080;29;20679;-72
2023/06/12 01:05:08;;;;;;;5.40;4.90;;;;;;;;;;4935546;29;20176;-72
2023/06/12 01:08:28;;;;;;;7.93;4.97;;;;;;;;;;4935203;29;20180;-73
2023/06/12 01:11:36;;;;;;;5.47;4.97;;;;;;;;;;4924276;29;20224;-72
2023/06/12 01:14:45;;;;;;;6.60;4.90;;;;;;;;;;4924584;29;20176;-73
2023/06/12 01:17:49;;;;;;;8.47;5.97;;;;;;;;;;4924386;29;20180;-73
2023/06/12 01:20:58;;;;;;;6.80;5.20;;;;;;;;;;4934928;29;20207;-73
2023/06/12 01:24:47;;;;;;;7.60;5.53;;;;;;;;;;4957094;23;20243;-71
2023/06/12 01:28:14;;;;;;;5.43;4.93;;;;;;;;;;4934492;28;20200;-71
2023/06/12 01:31:31;;;;;;;6.10;5.50;;;;;;;;;;4953776;28;20559;-71
2023/06/12 01:34:56;;;;;;;6.87;5.70;;;;;;;;;;4955082;29;20192;-71
2023/06/12 01:38:16;;;;;;;6.00;5.40;;;;;;;;;;4954291;29;20187;-71
2023/06/12 01:41:24;;;;;;;6.60;5.97;;;;;;;;;;4957060;28;20219;-71
2023/06/12 01:44:28;;;;;;;9.50;5.13;;;;;;;;;;4958278;29;20176;-71
2023/06/12 01:47:32;;;;;;;5.83;5.30;;;;;;;;;;4958533;29;20184;-71
2023/06/12 01:50:36;;;;;;;6.20;5.60;;;;;;;;;;4969042;28;20183;-71
2023/06/12 01:53:41;;;;;;;6.50;5.90;;;;;;;;;;4957582;29;20191;-71
2023/06/12 01:56:45;;;;;;;7.23;6.47;;;;;;;;;;4958087;29;20183;-71
2023/06/12 01:59:49;;;;;;;10.43;5.80;;;;;;;;;;4957827;29;20184;-71
2023/06/12 02:02:56;;;;;;;7.37;6.10;;;;;;;;;;4957302;29;20228;-71
2023/06/12 02:06:04;;;;;;;6.87;6.17;;;;;;;;;;4946656;29;20188;-71
2023/06/12 02:09:09;;;;;;;7.10;6.40;;;;;;;;;;4957433;29;20647;-71
2023/06/12 02:12:13;;;;;;;6.87;6.20;;;;;;;;;;4957269;29;20559;-71
2023/06/12 02:15:19;;;;;;;8.80;6.30;;;;;;;;;;4957488;29;20180;-71
2023/06/12 02:18:23;;;;;;;6.80;6.20;;;;;;;;;;4957469;29;20187;-71
2023/06/12 02:21:28;;;;;;;7.93;6.30;;;;;;;;;;4957054;29;20223;-71
2023/06/12 02:24:33;;;;;;;10.03;5.90;;;;;;;;;;4957054;29;20686;-71
2023/06/12 02:27:39;;;;;;;7.07;6.37;;;;;;;;;;4957276;29;20191;-71
2023/06/12 02:30:43;;;;;;;7.17;6.50;;;;;;;;;;4957172;29;20188;-71
2023/06/12 02:33:48;;;;;;;7.10;6.40;;;;;;;;;;4946432;29;20184;-71
2023/06/12 02:36:52;;;;;;;7.07;6.33;;;;;;;;;;4957680;29;20176;-71
2023/06/12 02:39:59;;;;;;;6.90;6.30;;;;;;;;;;4956805;29;20184;-71
2023/06/12 02:43:03;;;;;;;7.13;6.43;;;;;;;;;;4956939;29;20211;-71
2023/06/12 02:46:08;;;;;;;8.57;6.73;;;;;;;;;;4956689;29;20183;-71
2023/06/12 02:49:12;;;;;;;7.27;6.57;;;;;;;;;;4968519;28;20184;-71
2023/06/12 02:52:18;;;;;;;8.63;6.60;;;;;;;;;;4955476;28;20219;-71
2023/06/12 02:55:22;;;;;;;7.17;6.43;;;;;;;;;;4945876;29;20191;-71
2023/06/12 02:58:27;;;;;;;7.20;6.50;;;;;;;;;;4956720;28;20200;-71
2023/06/12 03:01:32;;;;;;;9.47;7.27;;;;;;;;;;4956330;29;20215;-71
2023/06/12 03:04:36;;;;;;;7.87;6.43;;;;;;;;;;4956282;29;20211;-71
2023/06/12 03:07:42;;;;;;;7.33;6.60;;;;;;;;;;4945838;29;20183;-71
2023/06/12 03:10:47;;;;;;;7.80;6.67;;;;;;;;;;4956624;29;20180;-71
2023/06/12 03:13:51;;;;;;;7.87;7.07;;;;;;;;;;4956487;29;20180;-72
2023/06/12 03:16:55;;;;;;;7.77;7.00;;;;;;;;;;4956423;29;20187;-72
2023/06/12 03:19:59;;;;;;;7.30;6.60;;;;;;;;;;4957165;29;20187;-72
2023/06/12 03:23:03;;;;;;;9.03;7.10;;;;;;;;;;4956139;29;20227;-72
2023/06/12 03:26:08;;;;;;;8.47;7.27;;;;;;;;;;4955962;29;20183;-72
2023/06/12 03:29:12;;;;;;;10.10;7.20;;;;;;;;;;4945312;29;20183;-72
2023/06/12 03:32:17;;;;;;;13.60;7.67;;;;;;;;;;4956094;29;20227;-72
2023/06/12 03:35:29;;;;;;;7.90;7.10;;;;;;;;;;4945404;29;20256;-72
2023/06/12 03:38:34;;;;;;;7.70;6.90;;;;;;;;;;4956034;29;20179;-72
2023/06/12 03:41:52;;;;;;;9.27;7.40;;;;;;;;;;4956019;29;20215;-72
2023/06/12 03:44:57;;;;;;;9.80;6.97;;;;;;;;;;4967216;28;20172;-72
2023/06/12 03:48:03;;;;;;;8.60;7.60;;;;;;;;;;4966856;28;20195;-71
2023/06/12 03:51:08;;;;;;;9.83;7.57;;;;;;;;;;4945006;29;20564;-71
2023/06/12 03:54:12;;;;;;;9.23;8.27;;;;;;;;;;4955631;28;20195;-72
2023/06/12 03:57:17;;;;;;;8.47;7.53;;;;;;;;;;4955952;29;20183;-71
2023/06/12 04:00:21;;;;;;;10.60;8.03;;;;;;;;;;4955363;29;20188;-71
2023/06/12 04:03:25;;;;;;;8.07;7.27;;;;;;;;;;4955567;28;20207;-71
2023/06/12 04:06:32;;;;;;;8.47;7.43;;;;;;;;;;4955791;29;20188;-71
2023/06/12 04:09:37;;;;;;;7.97;7.20;;;;;;;;;;4963529;28;20192;-71
2023/06/12 04:12:42;;;;;;;10.63;7.57;;;;;;;;;;4955518;29;20219;-71
2023/06/12 04:15:47;;;;;;;8.57;7.27;;;;;;;;;;4955302;29;20192;-71
2023/06/12 04:18:51;;;;;;;8.33;7.53;;;;;;;;;;4954973;29;20187;-71
2023/06/12 04:21:55;;;;;;;9.87;8.87;;;;;;;;;;4955168;29;20215;-71
2023/06/12 04:25:01;;;;;;;9.40;8.50;;;;;;;;;;4954832;29;20706;-71
2023/06/12 04:28:08;;;;;;;18.57;11.57;;;;;;;;;;4955201;29;20183;-71
2023/06/12 04:31:15;;;;;;;13.10;8.50;;;;;;;;;;4943988;29;20230;-71
2023/06/12 04:34:19;;;;;;;9.93;8.93;;;;;;;;;;4954736;29;20191;-71
2023/06/12 04:37:25;;;;;;;13.83;8.40;;;;;;;;;;4944192;29;20635;-72
2023/06/12 04:40:30;;;;;;;9.17;7.70;;;;;;;;;;4943894;29;20192;-71
2023/06/12 04:43:34;;;;;;;13.20;8.27;;;;;;;;;;4954521;29;20211;-71
2023/06/12 04:46:38;;;;;;;12.93;7.27;;;;;;;;;;4955349;29;20183;-71
2023/06/12 04:49:45;;;;;;;8.43;7.50;;;;;;;;;;4954695;29;20180;-71
2023/06/12 04:52:50;;;;;;;9.17;7.53;;;;;;;;;;4943656;29;20245;-71
2023/06/12 04:56:00;;;;;;;9.60;7.40;;;;;;;;;;4943728;29;20183;-70
2023/06/12 04:59:05;;;;;;;10.13;7.30;;;;;;;;;;4955157;29;20195;-71
2023/06/12 05:02:09;;;;;;;8.63;7.40;;;;;;;;;;4954330;29;20222;-71
2023/06/12 05:05:13;;;;;;;8.40;7.57;;;;;;;;;;4954507;29;20207;-71
2023/06/12 05:08:18;;;;;;;10.60;7.13;;;;;;;;;;4954612;29;20634;-72
2023/06/12 05:11:22;;;;;;;12.00;7.90;;;;;;;;;;4954374;29;20219;-72
2023/06/12 05:14:27;;;;;;;9.67;6.57;;;;;;;;;;4953561;29;20179;-72
2023/06/12 05:17:33;;;;;;;9.67;7.03;;;;;;;;;;4953442;29;20203;-71
2023/06/12 05:20:38;;;;;;;8.10;6.60;;;;;;;;;;4949624;29;20199;-72
2023/06/12 05:23:42;;;;;;;8.43;6.87;;;;;;;;;;4943310;29;20223;-71
2023/06/12 05:26:47;;;;;;;9.57;6.80;;;;;;;;;;4954306;29;20192;-71
2023/06/12 05:29:51;;;;;;;7.10;6.23;;;;;;;;;;4954386;29;20184;-71
2023/06/12 05:32:55;;;;;;;12.27;6.23;;;;;;;;;;4954895;29;20226;-71
2023/06/12 05:36:00;;;;;;;8.30;6.27;;;;;;;;;;4954595;29;20191;-71
2023/06/12 05:39:05;;;;;;;7.27;5.80;;;;;;;;;;4954248;29;20655;-71
2023/06/12 05:42:10;;;;;;;8.10;5.33;;;;;;;;;;4953935;29;20215;-72
2023/06/12 05:45:15;;;;;;;7.27;5.80;;;;;;;;;;4954128;29;20211;-71
2023/06/12 05:48:20;;;;;;;9.83;6.00;;;;;;;;;;4953921;29;20647;-71
2023/06/12 05:51:24;;;;;;;10.67;5.20;;;;;;;;;;4953596;29;20239;-71
2023/06/12 05:54:28;;;;;;;10.00;5.90;;;;;;;;;;4953708;29;20187;-71
2023/06/12 05:57:33;;;;;;;10.57;5.80;;;;;;;;;;4954133;29;20187;-71
2023/06/12 06:00:38;;;;;;;12.03;5.70;;;;;;;;;;4954918;29;20191;-70
2023/06/12 06:03:51;;;;;;;13.97;5.73;;;;;;;;;;4954485;29;20210;-71
2023/06/12 06:06:55;;;;;;;7.10;5.23;;;;;;;;;;4954305;29;20196;-71
2023/06/12 06:09:59;;;;;;;7.50;5.07;;;;;;;;;;4952175;29;20195;-71
2023/06/12 06:13:04;;;;;;;10.30;5.50;;;;;;;;;;4954462;29;20179;-71
2023/06/12 06:16:10;;;;;;;8.30;5.10;;;;;;;;;;4953757;29;20186;-71
2023/06/12 06:19:15;;;;;;;11.07;5.83;;;;;;;;;;4953785;29;20520;-71
2023/06/12 06:22:22;;;;;;;5.77;4.70;;;;;;;;;;4942658;29;20221;-71
2023/06/12 06:25:28;;;;;;;5.17;4.63;;;;;;;;;;4953463;28;20223;-71
2023/06/12 06:28:33;;;;;;;5.90;5.30;;;;;;;;;;4946187;29;20187;-71
2023/06/12 06:31:37;;;;;;;6.10;4.77;;;;;;;;;;4957005;29;20567;-71
2023/06/12 06:34:42;;;;;;;6.30;4.90;;;;;;;;;;4956924;29;20180;-71
2023/06/12 06:37:47;;;;;;;9.97;5.50;;;;;;;;;;4946086;29;20180;-71
2023/06/12 06:40:51;;;;;;;7.03;4.90;;;;;;;;;;4956944;29;20188;-71
2023/06/12 06:43:57;;;;;;;5.43;4.90;;;;;;;;;;4956860;29;20204;-71
2023/06/12 06:47:03;;;;;;;5.57;4.80;;;;;;;;;;4956740;29;20196;-71
2023/06/12 06:50:09;;;;;;;9.10;5.00;;;;;;;;;;4957146;29;20184;-71
2023/06/12 06:53:13;;;;;;;5.57;5.07;;;;;;;;;;4945796;29;20180;-72
2023/06/12 06:56:17;;;;;;;6.00;4.87;;;;;;;;;;4957017;29;20172;-72
2023/06/12 06:59:21;;;;;;;8.73;4.97;;;;;;;;;;4956407;29;20175;-71
2023/06/12 07:02:26;;;;;;;5.53;4.70;;;;;;;;;;4956323;29;20559;-71
2023/06/12 07:05:32;;;;;;;7.77;5.43;;;;;;;;;;4956841;29;20200;-71
2023/06/12 07:08:37;;;;;;;6.53;5.30;;;;;;;;;;4957570;29;20184;-71
2023/06/12 07:11:41;;;;;;;8.07;4.67;;;;;;;;;;4957006;29;20219;-71
2023/06/12 07:14:45;;;;;;;8.13;4.57;;;;;;;;;;4945647;29;20179;-71
2023/06/12 07:17:51;;;;;;;5.40;4.50;;;;;;;;;;4956966;29;20184;-71
2023/06/12 07:20:55;;;;;;;8.67;4.73;;;;;;;;;;4957628;29;20187;-71
2023/06/12 07:24:06;;;;;;;5.47;4.30;;;;;;;;;;4956628;29;20694;-71
2023/06/12 07:27:11;;;;;;;8.30;4.67;;;;;;;;;;4915902;29;20213;-72
2023/06/12 07:30:15;;;;;;;16.27;5.23;;;;;;;;;;4928718;29;20553;-72
2023/06/12 07:33:20;;;;;;;9.63;4.57;;;;;;;;;;4909845;29;20189;-72
2023/06/12 07:36:24;;;;;;;8.87;4.40;;;;;;;;;;4910101;29;20522;-72
2023/06/12 07:39:28;;;;;;;7.60;4.40;;;;;;;;;;4899036;29;20189;-72
2023/06/12 07:42:35;;;;;;;6.07;4.13;;;;;;;;;;4910049;29;20698;-72
2023/06/12 07:45:39;;;;;;;4.47;4.07;;;;;;;;;;4910082;29;20211;-72
2023/06/12 07:48:43;;;;;;;5.47;4.57;;;;;;;;;;4909739;29;20188;-72
2023/06/12 07:51:48;;;;;;;5.80;4.40;;;;;;;;;;4909713;29;20221;-72
2023/06/12 07:54:53;;;;;;;4.93;4.30;;;;;;;;;;4909339;29;20190;-72
2023/06/12 07:57:58;;;;;;;4.30;3.90;;;;;;;;;;4909630;29;20191;-72
2023/06/12 08:01:04;;;;;;;4.10;3.50;;;;;;;;;;4909422;29;20223;-72
2023/06/12 08:04:10;;;;;;;10.50;3.90;;;;;;;;;;4909436;29;20221;-72
2023/06/12 08:07:15;;;;;;;5.35;3.90;;;;;;;;;;4909067;29;20214;-72
2023/06/12 08:10:20;;;;;;;7.25;3.75;;;;;;;;;;4909116;29;20671;-72
2023/06/12 08:13:24;;;;;;;8.70;3.70;;;;;;;;;;4899239;29;20527;-72
2023/06/12 08:16:28;;;;;;;3.67;3.30;;;;;;;;;;4898327;29;20188;-72
2023/06/12 08:19:34;;;;;;;5.18;3.83;;;;;;;;;;4908931;29;20186;-72
2023/06/12 08:22:38;;;;;;;7.43;3.55;;;;;;;;;;4909095;29;20220;-72
2023/06/12 08:25:43;;;;;;;5.72;3.28;;;;;;;;;;4908820;29;20221;-72
2023/06/12 08:28:49;;;;;;;7.25;3.38;;;;;;;;;;4908764;29;20193;-72
2023/06/12 08:31:56;;;;;;;4.05;3.45;;;;;;;;;;4909164;29;20214;-72
2023/06/12 08:35:01;;;;;;;4.60;3.70;;;;;;;;;;4898316;29;20632;-72
2023/06/12 08:38:05;;;;;;;4.05;3.50;;;;;;;;;;4909057;29;20183;-72
2023/06/12 08:41:10;;;;;;;3.75;3.28;;;;;;;;;;4908969;29;20220;-73
2023/06/12 08:44:15;;;;;;;5.60;3.35;;;;;;;;;;4909016;29;20183;-72
2023/06/12 08:47:21;;;;;;;3.97;3.50;;;;;;;;;;4908472;29;20670;-72
2023/06/12 08:50:26;;;;;;;4.38;3.30;;;;;;;;;;4908918;29;20635;-72
2023/06/12 08:53:30;;;;;;;7.63;3.50;;;;;;;;;;4898251;29;20208;-72
2023/06/12 08:56:36;;;;;;;4.03;3.47;;;;;;;;;;4908689;29;20181;-72
2023/06/12 08:59:40;;;;;;;34.03;4.93;;;;;;;;;;4898799;29;20184;-72
2023/06/12 09:02:51;;;;;;;6.45;3.25;;;;;;;;;;4908444;29;20669;-72
2023/06/12 09:05:59;;;;;;;7.60;3.30;;;;;;;;;;4908481;29;20220;-72
2023/06/12 09:09:04;;;;;;;5.70;3.58;;;;;;;;;;4898418;29;20649;-72
2023/06/12 09:12:10;;;;;;;4.38;3.40;;;;;;;;;;4898339;29;20222;-72
2023/06/12 09:15:18;;;;;;;6.50;3.45;;;;;;;;;;4898115;29;20628;-72
2023/06/12 09:18:23;;;;;;;3.97;3.53;;;;;;;;;;4898308;29;20191;-72
2023/06/12 09:21:27;;;;;;;7.80;3.63;;;;;;;;;;4898625;29;20219;-72
2023/06/12 09:24:31;;;;;;;5.60;3.38;;;;;;;;;;4897862;29;20229;-72
2023/06/12 09:27:42;;;;;;;9.82;3.92;;;;;;;;;;4898251;29;20192;-72
2023/06/12 09:30:49;;;;;;;5.25;3.75;;;;;;;;;;4908019;29;20187;-72
2023/06/12 09:33:55;;;;;;;4.18;3.50;;;;;;;;;;4908006;29;20659;-72
2023/06/12 09:37:00;;;;;;;5.72;3.60;;;;;;;;;;4897086;29;20659;-72
2023/06/12 09:40:13;;;;;;;5.32;3.47;;;;;;;;;;4897863;29;20187;-72
2023/06/12 09:43:17;;;;;;;4.50;3.30;;;;;;;;;;4897520;29;20640;-72
2023/06/12 09:46:26;;;;;;;6.10;3.33;;;;;;;;;;4898195;29;20220;-72
2023/06/12 09:49:31;;;;;;;4.13;3.20;;;;;;;;;;4898060;29;20197;-72
2023/06/12 09:52:36;;;;;;;5.90;3.60;;;;;;;;;;4897940;29;20580;-72
2023/06/12 09:55:41;;;;;;;7.15;3.38;;;;;;;;;;4897707;29;20204;-72
2023/06/12 09:58:47;;;;;;;6.75;3.50;;;;;;;;;;4897956;29;20513;-72
2023/06/12 10:01:55;;;;;;;6.53;3.40;;;;;;;;;;4899690;29;20223;-72
2023/06/12 10:05:20;;;;;;;3.42;3.10;;;;;;;;;;4911776;29;20215;-72
2023/06/12 10:08:24;;;;;;;14.80;3.92;;;;;;;;;;4901628;29;20191;-72
2023/06/12 10:11:28;;;;;;;4.95;3.20;;;;;;;;;;4901119;29;20229;-73
2023/06/12 10:14:34;;;;;;;4.75;3.08;;;;;;;;;;4901162;29;20181;-73
2023/06/12 10:17:42;;;;;;;4.07;2.97;;;;;;;;;;4901302;29;20186;-73
2023/06/12 10:20:46;;;;;;;4.55;3.20;;;;;;;;;;4901075;29;20641;-74
2023/06/12 10:23:51;;;;;;;4.13;3.13;;;;;;;;;;4911103;29;20177;-74
2023/06/12 10:26:56;;;;;;;4.35;3.60;;;;;;;;;;4901283;29;20186;-73
2023/06/12 10:30:01;;;;;;;5.30;3.50;;;;;;;;;;4900651;29;20653;-74
2023/06/12 10:33:13;;;;;;;4.85;3.10;;;;;;;;;;4911314;29;20190;-74
2023/06/12 10:36:17;;;;;;;4.20;3.50;;;;;;;;;;4900644;29;20189;-74
2023/06/12 10:39:24;;;;;;;5.22;3.35;;;;;;;;;;4900499;29;20182;-74
2023/06/12 10:42:44;;;;;;;4.15;3.58;;;;;;;;;;4900834;29;20218;-74
2023/06/12 10:46:11;;;;;;;5.63;3.67;;;;;;;;;;4900823;29;20222;-74
2023/06/12 10:49:17;;;;;;;5.75;3.33;;;;;;;;;;4900907;29;20182;-73
2023/06/12 10:52:21;;;;;;;3.55;3.25;;;;;;;;;;4900231;29;20225;-73
2023/06/12 10:55:28;;;;;;;5.45;3.25;;;;;;;;;;4900550;29;20174;-72
2023/06/12 10:58:37;;;;;;;5.13;3.35;;;;;;;;;;4910424;29;20182;-73
2023/06/12 11:01:41;;;;;;;3.72;3.13;;;;;;;;;;4900450;29;20570;-73
2023/06/12 11:04:45;;;;;;;7.75;2.92;;;;;;;;;;4900605;29;20186;-73
2023/06/12 11:07:50;;;;;;;5.55;2.90;;;;;;;;;;4900050;29;20182;-73
2023/06/12 11:10:54;;;;;;;3.92;2.90;;;;;;;;;;4910110;29;20186;-73
2023/06/12 11:14:00;;;;;;;7.20;2.92;;;;;;;;;;4899107;29;20190;-73
2023/06/12 11:17:04;;;;;;;6.40;3.05;;;;;;;;;;4900406;29;20186;-73
2023/06/12 11:20:09;;;;;;;4.75;3.30;;;;;;;;;;4900434;29;20217;-73
2023/06/12 11:23:13;;;;;;;3.47;3.17;;;;;;;;;;4899788;29;20206;-73
2023/06/12 11:26:18;;;;;;;3.78;2.83;;;;;;;;;;4899601;29;20689;-73
2023/06/12 11:29:25;;;;;;;5.30;2.90;;;;;;;;;;4910132;29;20186;-73
2023/06/12 11:32:30;;;;;;;5.00;3.40;;;;;;;;;;4899508;29;20225;-74
2023/06/12 11:35:39;;;;;;;6.78;2.95;;;;;;;;;;4899783;29;20594;-73
2023/06/12 11:38:43;;;;;;;5.13;3.30;;;;;;;;;;4909866;29;20186;-72
2023/06/12 11:41:48;;;;;;;3.88;2.70;;;;;;;;;;4899350;29;20705;-73
2023/06/12 11:44:53;;;;;;;3.83;2.70;;;;;;;;;;4909603;29;20186;-73
2023/06/12 11:47:57;;;;;;;15.63;3.97;;;;;;;;;;4909730;29;20638;-72
2023/06/12 11:51:02;;;;;;;7.65;2.78;;;;;;;;;;4899452;29;20229;-72
2023/06/12 11:54:07;;;;;;;3.42;2.63;;;;;;;;;;4899223;29;20201;-72
2023/06/12 11:57:16;;;;;;;4.90;2.70;;;;;;;;;;4899508;29;20197;-73
2023/06/12 12:00:21;;;;;;;8.30;2.70;;;;;;;;;;4899361;29;20190;-73
2023/06/12 12:03:27;;;;;;;2.67;2.47;;;;;;;;;;4899185;29;20649;-73
2023/06/12 12:06:31;;;;;;;4.05;3.08;;;;;;;;;;4899300;29;20209;-73
2023/06/12 12:09:35;;;;;;;4.10;3.20;;;;;;;;;;4909185;29;20201;-73
2023/06/12 12:12:48;;;;;;;3.95;2.70;;;;;;;;;;4909054;29;20229;-72
2023/06/12 12:15:52;;;;;;;8.40;2.83;;;;;;;;;;4909294;29;20198;-72
2023/06/12 12:18:56;;;;;;;4.10;2.60;;;;;;;;;;4899349;29;20193;-72
2023/06/12 12:22:00;;;;;;;3.10;2.50;;;;;;;;;;4898730;29;20225;-72
2023/06/12 12:25:06;;;;;;;4.53;2.60;;;;;;;;;;4898368;29;20669;-73
2023/06/12 12:28:10;;;;;;;2.97;2.70;;;;;;;;;;4899062;29;20201;-73
2023/06/12 12:31:14;;;;;;;5.85;2.78;;;;;;;;;;4898941;29;20225;-73
2023/06/12 12:34:18;;;;;;;5.10;2.45;;;;;;;;;;4899200;29;20189;-73
2023/06/12 12:37:24;;;;;;;3.72;2.42;;;;;;;;;;4898558;29;20178;-73
2023/06/12 12:40:28;;;;;;;4.30;3.25;;;;;;;;;;4908782;29;20194;-73
2023/06/12 12:43:33;;;;;;;4.50;3.17;;;;;;;;;;4898463;29;20182;-73
2023/06/12 12:46:37;;;;;;;5.43;2.67;;;;;;;;;;4898640;29;20221;-73
2023/06/12 12:49:41;;;;;;;4.28;2.75;;;;;;;;;;4898394;29;20182;-73
2023/06/12 12:52:46;;;;;;;2.97;2.60;;;;;;;;;;4898772;29;20551;-73
2023/06/12 12:55:50;;;;;;;2.92;2.42;;;;;;;;;;4908533;29;20178;-73
2023/06/12 12:58:56;;;;;;;3.03;2.60;;;;;;;;;;4908195;29;20186;-72
2023/06/12 13:02:00;;;;;;;3.47;2.70;;;;;;;;;;4908452;29;20222;-73
2023/06/12 13:05:05;;;;;;;6.80;2.85;;;;;;;;;;4898279;29;20185;-73
2023/06/12 13:08:10;;;;;;;5.25;2.70;;;;;;;;;;4897918;29;20198;-73
2023/06/12 13:11:14;;;;;;;3.30;2.60;;;;;;;;;;4898519;29;20221;-73
2023/06/12 13:14:18;;;;;;;3.80;2.78;;;;;;;;;;4908696;29;20185;-73
2023/06/12 13:17:22;;;;;;;2.83;2.60;;;;;;;;;;4898096;29;20186;-73
2023/06/12 13:20:27;;;;;;;5.95;2.60;;;;;;;;;;4898069;29;20186;-73
2023/06/12 13:23:31;;;;;;;4.88;2.97;;;;;;;;;;4908240;29;20186;-73
2023/06/12 13:26:36;;;;;;;3.10;2.50;;;;;;;;;;4946544;23;20244;-72
2023/06/12 13:29:40;;;;;;;2.83;2.30;;;;;;;;;;4936323;29;20181;-72
2023/06/12 13:32:44;;;;;;;4.50;2.80;;;;;;;;;;4946057;29;20220;-71
2023/06/12 13:35:48;;;;;;;4.95;2.85;;;;;;;;;;4936709;29;20516;-72
2023/06/12 13:38:52;;;;;;;4.28;3.15;;;;;;;;;;4949877;29;20189;-72
2023/06/12 13:41:56;;;;;;;7.30;3.20;;;;;;;;;;4939823;29;20570;-72
2023/06/12 13:45:00;;;;;;;3.38;2.85;;;;;;;;;;4940068;29;20184;-72
2023/06/12 13:48:04;;;;;;;2.97;2.22;;;;;;;;;;4939830;29;20188;-72
2023/06/12 13:51:08;;;;;;;7.25;2.80;;;;;;;;;;4949839;29;20224;-72
2023/06/12 13:54:13;;;;;;;3.17;2.53;;;;;;;;;;4949506;29;20196;-72
2023/06/12 13:57:17;;;;;;;4.30;2.83;;;;;;;;;;4939271;29;20192;-72
2023/06/12 14:00:22;;;;;;;5.90;2.80;;;;;;;;;;4949626;29;20203;-72
2023/06/12 14:03:26;;;;;;;5.00;2.95;;;;;;;;;;4949699;29;20177;-71
2023/06/12 14:06:30;;;;;;;4.50;2.92;;;;;;;;;;4939089;29;20212;-71
2023/06/12 14:09:35;;;;;;;9.50;3.42;;;;;;;;;;4949584;29;20184;-72
2023/06/12 14:12:39;;;;;;;4.75;2.67;;;;;;;;;;4939238;29;20216;-70
2023/06/12 14:15:43;;;;;;;12.02;3.00;;;;;;;;;;4938980;29;20181;-70
2023/06/12 14:18:48;;;;;;;4.70;3.17;;;;;;;;;;4939163;29;20193;-70
2023/06/12 14:21:52;;;;;;;4.53;2.75;;;;;;;;;;4948945;29;20220;-69
2023/06/12 14:24:56;;;;;;;5.00;2.67;;;;;;;;;;4948950;29;20204;-69
2023/06/12 14:28:00;;;;;;;3.47;2.70;;;;;;;;;;4938835;29;20224;-69
2023/06/12 14:31:04;;;;;;;6.00;2.70;;;;;;;;;;4938573;29;20220;-70
2023/06/12 14:34:08;;;;;;;3.20;2.90;;;;;;;;;;4938947;29;20184;-69
2023/06/12 14:37:13;;;;;;;4.13;2.60;;;;;;;;;;4948784;29;20196;-70
2023/06/12 14:40:17;;;;;;;3.75;2.47;;;;;;;;;;4938816;29;20196;-70
2023/06/12 14:43:22;;;;;;;2.80;2.60;;;;;;;;;;4938754;29;20188;-70
2023/06/12 14:46:27;;;;;;;3.13;2.83;;;;;;;;;;4938331;29;20208;-72
2023/06/12 14:49:31;;;;;;;5.65;2.53;;;;;;;;;;4938648;29;20180;-71
2023/06/12 14:52:35;;;;;;;3.03;2.72;;;;;;;;;;4938464;29;20220;-72
2023/06/12 14:55:42;;;;;;;3.25;2.63;;;;;;;;;;4938503;29;20200;-72
2023/06/12 14:58:46;;;;;;;5.25;2.50;;;;;;;;;;4948681;29;20181;-72
2023/06/12 15:01:50;;;;;;;4.50;2.65;;;;;;;;;;4938232;29;20571;-72
2023/06/12 15:04:54;;;;;;;4.05;2.75;;;;;;;;;;4938205;29;20196;-72
2023/06/12 15:07:58;;;;;;;4.28;2.55;;;;;;;;;;4938179;29;20232;-73
2023/06/12 15:11:04;;;;;;;7.95;3.22;;;;;;;;;;4937903;29;20224;-71
2023/06/12 15:14:08;;;;;;;4.90;3.05;;;;;;;;;;4938197;29;20185;-70
2023/06/12 15:17:13;;;;;;;4.45;2.80;;;;;;;;;;4937883;29;20177;-70
2023/06/12 15:20:19;;;;;;;6.70;3.40;;;;;;;;;;4938386;29;20189;-70
2023/06/12 15:23:23;;;;;;;5.38;2.90;;;;;;;;;;4938208;29;20185;-70
2023/06/12 15:26:27;;;;;;;5.63;2.92;;;;;;;;;;4937754;29;20227;-71
2023/06/12 15:29:31;;;;;;;3.95;2.60;;;;;;;;;;4937958;29;20184;-71
2023/06/12 15:32:35;;;;;;;5.68;2.60;;;;;;;;;;4937760;29;20216;-70
2023/06/12 15:35:39;;;;;;;5.85;2.83;;;;;;;;;;4938035;29;20181;-72
2023/06/12 15:38:44;;;;;;;5.18;3.05;;;;;;;;;;4936748;29;20187;-70
2023/06/12 15:41:48;;;;;;;3.15;2.80;;;;;;;;;;4936872;29;20566;-71
2023/06/12 15:44:53;;;;;;;3.42;3.13;;;;;;;;;;4925971;29;20185;-72
2023/06/12 15:47:58;;;;;;;4.13;3.28;;;;;;;;;;4937634;29;20211;-72
2023/06/12 15:51:02;;;;;;;6.40;3.33;;;;;;;;;;4937198;29;20222;-72
2023/06/12 15:54:06;;;;;;;5.43;3.55;;;;;;;;;;4947499;29;20187;-72
2023/06/12 15:57:10;;;;;;;6.70;3.42;;;;;;;;;;4937316;29;20191;-71
2023/06/12 16:00:15;;;;;;;6.00;3.58;;;;;;;;;;4936836;29;20628;-72
2023/06/12 16:03:20;;;;;;;5.13;3.38;;;;;;;;;;4947151;29;20182;-72
2023/06/12 16:06:24;;;;;;;3.53;3.05;;;;;;;;;;4947272;29;20188;-72
2023/06/12 16:09:28;;;;;;;7.97;3.40;;;;;;;;;;4936828;29;20192;-72
2023/06/12 16:12:32;;;;;;;6.10;3.50;;;;;;;;;;4936909;29;20216;-72
2023/06/12 16:15:36;;;;;;;5.68;3.67;;;;;;;;;;4936052;29;20668;-71
2023/06/12 16:18:40;;;;;;;5.22;3.58;;;;;;;;;;4947022;29;20180;-72
2023/06/12 16:21:45;;;;;;;3.58;3.28;;;;;;;;;;4946947;29;20225;-71
2023/06/12 16:24:49;;;;;;;4.18;2.97;;;;;;;;;;4936487;29;20528;-72
2023/06/12 16:27:53;;;;;;;4.80;3.30;;;;;;;;;;4946794;29;20659;-72
2023/06/12 16:30:58;;;;;;;7.13;3.50;;;;;;;;;;4946411;29;20215;-71
2023/06/12 16:34:02;;;;;;;8.70;3.43;;;;;;;;;;4936606;29;20180;-71
2023/06/12 16:37:06;;;;;;;6.77;3.00;;;;;;;;;;4936536;29;20173;-71
2023/06/12 16:40:12;;;;;;;6.10;3.20;;;;;;;;;;4936495;29;20184;-72
2023/06/12 16:43:17;;;;;;;4.80;3.23;;;;;;;;;;4936476;29;20194;-72
2023/06/12 16:46:21;;;;;;;3.83;3.10;;;;;;;;;;4936410;29;20185;-71
2023/06/12 16:49:25;;;;;;;4.03;2.97;;;;;;;;;;4946665;29;20184;-71
2023/06/12 16:52:29;;;;;;;5.83;3.10;;;;;;;;;;4936188;29;20231;-71
2023/06/12 16:55:34;;;;;;;8.60;2.97;;;;;;;;;;4946234;29;20189;-71
2023/06/12 16:58:38;;;;;;;6.73;3.23;;;;;;;;;;4936092;29;20183;-71
2023/06/12 17:01:42;;;;;;;3.80;2.67;;;;;;;;;;4936174;29;20218;-72
2023/06/12 17:04:47;;;;;;;5.10;3.07;;;;;;;;;;4935834;29;20206;-72
2023/06/12 17:07:51;;;;;;;4.80;3.07;;;;;;;;;;4936678;29;20214;-72
2023/06/12 17:10:55;;;;;;;5.33;3.53;;;;;;;;;;4936277;29;20196;-71
2023/06/12 17:13:59;;;;;;;6.77;3.40;;;;;;;;;;4936074;29;20185;-71
2023/06/12 17:17:04;;;;;;;3.83;3.10;;;;;;;;;;4935985;29;20188;-71
2023/06/12 17:20:09;;;;;;;6.10;3.80;;;;;;;;;;4936342;29;20191;-71
2023/06/12 17:23:12;;;;;;;5.13;3.50;;;;;;;;;;4935984;29;20183;-71
2023/06/12 17:26:17;;;;;;;5.80;3.20;;;;;;;;;;4935718;29;20210;-71
2023/06/12 17:29:21;;;;;;;5.63;3.07;;;;;;;;;;4936351;29;20632;-70
2023/06/12 17:32:25;;;;;;;3.70;3.20;;;;;;;;;;4935832;29;20230;-70
2023/06/12 17:35:29;;;;;;;6.27;3.30;;;;;;;;;;4935677;29;20197;-71
2023/06/12 17:38:33;;;;;;;3.93;3.30;;;;;;;;;;4935759;29;20184;-70
2023/06/12 17:41:37;;;;;;;4.63;2.90;;;;;;;;;;4934690;29;20209;-70
2023/06/12 17:44:43;;;;;;;4.00;3.53;;;;;;;;;;4935543;29;20201;-71
2023/06/12 17:47:50;;;;;;;5.23;3.23;;;;;;;;;;4923697;29;20230;-71
2023/06/12 17:50:54;;;;;;;5.87;3.60;;;;;;;;;;4934896;29;20197;-71
2023/06/12 17:53:59;;;;;;;4.97;3.20;;;;;;;;;;4946037;29;20192;-70
2023/06/12 17:57:03;;;;;;;4.90;3.33;;;;;;;;;;4935519;29;20185;-71
2023/06/12 18:00:07;;;;;;;4.50;3.30;;;;;;;;;;4935743;29;20632;-70
2023/06/12 18:03:12;;;;;;;6.47;3.60;;;;;;;;;;4935383;29;20188;-71
2023/06/12 18:06:16;;;;;;;3.60;3.20;;;;;;;;;;4935654;29;20189;-71
2023/06/12 18:09:20;;;;;;;7.43;3.40;;;;;;;;;;4935633;29;20169;-71
2023/06/12 18:12:24;;;;;;;5.03;3.23;;;;;;;;;;4934875;29;20576;-71
2023/06/12 18:15:28;;;;;;;5.10;3.53;;;;;;;;;;4936161;29;20188;-71
2023/06/12 18:18:33;;;;;;;5.17;3.33;;;;;;;;;;4945677;29;20636;-71
2023/06/12 18:21:39;;;;;;;3.57;3.10;;;;;;;;;;4935475;29;20212;-72
2023/06/12 18:24:44;;;;;;;5.03;3.60;;;;;;;;;;4938925;29;20177;-71
2023/06/12 18:27:50;;;;;;;7.33;3.70;;;;;;;;;;4938576;29;20216;-71
2023/06/12 18:30:54;;;;;;;4.33;3.23;;;;;;;;;;4938754;29;20189;-71